Tiempo atmosférico en la estación meteorológica de Alcala de Henares, Madrid (605 m.)



Fecha
DESCASC
Temp. máxima en grados centígrados (hora)
DESCASC
Temp. mínima en grados centígrados (hora)
DESCASC
Temp. media en grados centígrados
DESCASC
Racha de viento máxima en m/sg (hora)
DESCASC
Velocidad máxima media en intervalos de 10 minutos(hora)
DESCASC
Precipitaciones diarias en mm
DESCASC
Precipitaciones de 00:00 a 06:00 en mm
DESCASC
Precipitaciones de 06:00 a 12:00 en mm
DESCASC
Precipitaciones de 12:00 a 18:00 en mm
DESCASC
Precipitaciones de 18:00 a 24:00 en mm
DESCASC
10-07-2020 33.8 (16:40) 15.3 (07:00) 24.5 11.67 (14:20) 3.61 (03:10) 0 0 0 0 0
09-07-2020 33.6 (13:40) 18.4 (06:30) 26 15 (20:10) 8.33 (18:50) 0.2 0.2 0 0 0
08-07-2020 37.2 (14:00) 19.9 (05:30) 28.6 16.39 (18:30) 10.28 (20:40) 0.6 0.2 0.2 0.2 0
07-07-2020 39 (18:40) 18.7 (07:00) 28.9 10 (16:20) 5.83 (00:10) 0 0 0 0 0
06-07-2020 36.9 (18:10) 17.6 (00:00) 27.3 10.83 (22:50) 6.11 (22:50) 0 0 0 0 0
05-07-2020 37.2 (17:30) 16.7 (00:00) 27 6.94 (16:50) 4.44 (02:30) 0 0 0 0 0
04-07-2020 35.2 (18:20) 14.4 (00:00) 24.8 6.11 (15:40) 3.61 (05:30) 0 0 0 0 0
03-07-2020 32.8 (17:50) 15.2 (06:50) 24 10.56 (05:40) 6.94 (05:40) 0 0 0 0 0
02-07-2020 33.7 (18:00) 15.6 (00:00) 24.7 11.39 (15:10) 7.22 (16:00) 0 0 0 0 0
01-07-2020 36 (17:10) 16.5 (00:00) 26.3 11.11 (16:40) 6.67 (14:00) 0 0 0 0 0
30-06-2020 38.2 (17:50) 18.5 (00:00) 28.4 10.56 (15:30) 6.94 (19:00) 0 0 0 0 0
29-06-2020 37.3 (18:40) 16.9 (00:00) 27.1 8.89 (15:30) 5 (14:00) 0 0 0 0 0
28-06-2020 35.2 (18:20) 15.5 (00:00) 25.4 7.78 (14:00) 4.44 (17:00) 0 0 0 0 0
27-06-2020 33.3 (18:40) 13.4 (00:00) 23.3 9.44 (15:00) 4.17 (15:00) 0 0 0 0 0
26-06-2020 32.2 (17:30) 18.4 (00:00) 25.3 11.39 (18:20) 6.94 (18:20) 0 0 0 0 0
25-06-2020 35.5 (16:20) 17.7 (00:00) 26.6 9.72 (16:40) 5.83 (19:40) 1.2 0 0 0 1.2
24-06-2020 33 (19:20) 19.6 (00:00) 26.3 13.61 (04:20) 8.06 (14:00) 0.4 0.4 0 0 0
23-06-2020 37.6 (19:00) 17.1 (00:00) 27.3 9.72 (23:59) 5.83 (23:59) 0 0 0 0 0
22-06-2020 35.7 (18:30) 16.7 (00:00) 26.2 9.44 (00:20) 6.11 (00:30) 0 0 0 0 0
21-06-2020 34.7 (18:10) 13.7 (00:00) 24.2 8.33 (16:50) 3.89 (16:10) 0 0 0 0 0
20-06-2020 32.8 (18:10) 12.2 (00:00) 22.5 9.17 (18:10) 5.28 (17:20) 0 0 0 0 0
19-06-2020 30.9 (18:00) 13.3 (00:00) 22.1 10 (14:50) 5.28 (14:20) 0 0 0 0 0
18-06-2020 29.8 (18:10) 12.7 (00:00) 21.2 12.22 (13:20) 5.56 (19:30) -- 0 -- 0 0
17-06-2020 26.5 (16:40) 12.5 (00:00) 19.5 8.33 (18:20) 4.17 (22:40) -- 0 -- 0 0
16-06-2020 26.8 (17:00) 13.1 (00:00) 19.9 12.78 (15:50) 8.06 (15:50) 0 0 0 0 0
15-06-2020 28.2 (17:30) 11.5 (00:00) 19.9 9.17 (14:30) 5 (18:10) 0 0 0 0 0
14-06-2020 26.8 (17:50) 8.1 (00:00) 17.4 10.28 (15:20) 5.83 (15:20) 0 0 0 0 0
13-06-2020 23.9 (17:50) 10 (00:00) 16.9 8.33 (15:50) 4.72 (17:10) 0.2 0.2 0 0 0
12-06-2020 20.7 (15:00) 10.2 (00:00) 15.5 13.06 (22:50) 7.5 (17:40) 1.2 0 0 0 1.2

Gráficas

Temp. máximas Temp. mínimas Temp. medias Precipitaciones Rachas de viento máximas Velocidades máximas media en intervalos de 10 minutos

Datos horarios

Fecha y hora oficial Temperatura (ºC) Velocidad del viento (km/h) Dirección del viento Racha (km/h) Dirección de racha Precipitación (mm) Presión (hPa) Tendencia (hPa) Humedad (%)
2020-07-11 23:00:00 29.4 25 Sudeste 42 Sudeste 0 -- -- 39
2020-07-11 22:00:00 31.1 21 Sudeste 35 Sudeste 0 -- -- 33
2020-07-11 21:00:00 33.3 18 Sudeste 28 Sudeste 0 -- -- 30
2020-07-11 20:00:00 34.5 15 Sudeste 29 Sudeste 0 -- -- 28
2020-07-11 19:00:00 35.1 13 Sur 33 Sudeste 0 -- -- 26
2020-07-11 18:00:00 35.9 13 Sudeste 28 Sur 0 -- -- 25
2020-07-11 17:00:00 35.1 14 Sur 25 Sudeste 0 -- -- 24
2020-07-11 16:00:00 36.4 8 Sudoeste 32 Sur 0 -- -- 24
2020-07-11 15:00:00 36.2 14 Sudeste 27 Sur 0 -- -- 24
2020-07-11 14:00:00 34.9 10 Sudeste 23 Sudeste 0 -- -- 26
2020-07-11 13:00:00 33.4 9 Este 19 Sudeste 0 -- -- 28
2020-07-11 12:00:00 30.8 7 Este 14 Nordeste 0 -- -- 35
2020-07-11 11:00:00 28.5 7 Nordeste 20 Nordeste 0 -- -- 41
2020-07-11 10:00:00 25.1 13 Nordeste 23 Nordeste 0 -- -- 55
2020-07-11 09:00:00 21.9 17 Nordeste 23 Nordeste 0 -- -- 64
2020-07-11 08:00:00 19.7 10 Nordeste 17 Nordeste 0 -- -- 72
2020-07-11 07:00:00 18.7 12 Nordeste 15 Nordeste 0 -- -- 74
2020-07-11 06:00:00 18.8 8 Este 13 Nordeste 0 -- -- 71
2020-07-11 05:00:00 20 12 Nordeste 16 Nordeste 0 -- -- 66
2020-07-11 04:00:00 20.6 9 Nordeste 14 Nordeste 0 -- -- 62
2020-07-11 03:00:00 21.7 5 Este 13 Nordeste 0 -- -- 58
2020-07-11 02:00:00 23.2 10 Nordeste 20 Nordeste 0 -- -- 55
2020-07-11 01:00:00 24.8 10 Nordeste 20 Nordeste 0 -- -- 49
2020-07-11 00:00:00 23.6 6 Nordeste 13 Nordeste 0 -- -- 46
2020-07-10 23:00:00 25.1 4 Nordeste 7 Nordeste 0 -- -- 41
2020-07-10 22:00:00 29 0 Calma 5 Nordeste 0 -- -- 36
2020-07-10 21:00:00 32.3 4 Noroeste 12 Nordeste 0 -- -- 28
2020-07-10 20:00:00 32.8 7 Noroeste 17 Noroeste 0 -- -- 28
2020-07-10 19:00:00 33.4 9 Oeste 14 Oeste 0 -- -- 28
2020-07-10 18:00:00 33.5 4 Norte 13 Oeste 0 -- -- 29
2020-07-10 17:00:00 32.7 5 Noroeste 21 Sudoeste 0 -- -- 29
2020-07-10 16:00:00 31.9 4 Este 23 Oeste 0 -- -- 31
2020-07-10 15:00:00 32.2 5 Sudeste 42 Sudeste 0 -- -- 31
2020-07-10 14:00:00 31.6 5 Nordeste 21 Norte 0 -- -- 32
2020-07-10 13:00:00 30.1 11 Nordeste 20 Nordeste 0 -- -- 35
2020-07-10 12:00:00 28.5 6 Nordeste 14 Nordeste 0 -- -- 38
2020-07-10 11:00:00 25.9 6 Nordeste 14 Nordeste 0 -- -- 44
2020-07-10 10:00:00 22.7 9 Nordeste 15 Nordeste 0 -- -- 54
2020-07-10 09:00:00 19.6 11 Nordeste 17 Nordeste 0 -- -- 65
2020-07-10 08:00:00 17.2 7 Nordeste 11 Nordeste 0 -- -- 74
2020-07-10 07:00:00 15.3 5 Este 9 Nordeste 0 -- -- 79
2020-07-10 06:00:00 16.4 5 Nordeste 8 Este 0 -- -- 75
2020-07-10 05:00:00 17.6 6 Este 13 Este 0 -- -- 72
2020-07-10 04:00:00 17.8 5 Este 17 Nordeste 0 -- -- 72
2020-07-10 03:00:00 18 8 Nordeste 14 Nordeste 0 -- -- 73
2020-07-10 02:00:00 18.4 9 Nordeste 16 Este 0 -- -- 72
2020-07-10 01:00:00 19.1 7 Este 19 Nordeste 0 -- -- 70
2020-07-10 00:00:00 18.8 7 Nordeste 18 Nordeste 0 -- -- 70
2020-07-09 23:00:00 19.8 13 Nordeste 21 Nordeste 0 -- -- 65
2020-07-09 22:00:00 21.2 10 Nordeste 22 Sudeste 0 -- -- 55
2020-07-09 21:00:00 22.9 15 Sudeste 54 Sudeste 0 -- -- 49
2020-07-09 20:00:00 26.6 26 Nordeste 41 Nordeste 0 -- -- 42
2020-07-09 19:00:00 27.1 27 Nordeste 43 Nordeste 0 -- -- 40
2020-07-09 18:00:00 29.5 27 Nordeste 43 Nordeste 0 -- -- 36
2020-07-09 17:00:00 29.3 22 Sudeste 46 Este 0 -- -- 35
2020-07-09 16:00:00 31 19 Sudeste 35 Sudeste 0 -- -- 31
2020-07-09 15:00:00 30.9 13 Sudeste 31 Sudeste 0 -- -- 34
2020-07-09 14:00:00 32.9 6 Noroeste 17 Sur 0 -- -- 28
2020-07-09 13:00:00 32.3 7 Sudoeste 21 Sudoeste 0 -- -- 30
2020-07-09 12:00:00 30.8 7 Sudoeste 20 Sur 0 -- -- 35
2020-07-09 11:00:00 27.9 5 Este 17 Nordeste 0 -- -- 43
2020-07-09 10:00:00 25.6 9 Nordeste 17 Nordeste 0 -- -- 48
2020-07-09 09:00:00 22.7 9 Nordeste 13 Este 0 -- -- 54
2020-07-09 08:00:00 20 5 Este 21 Nordeste 0 -- -- 58
2020-07-09 07:00:00 19.1 13 Nordeste 21 Nordeste 0 -- -- 58
2020-07-09 06:00:00 18.6 5 Este 11 Nordeste 0 -- -- 62
2020-07-09 05:00:00 19.3 7 Nordeste 10 Norte 0 -- -- 60
2020-07-09 04:00:00 19.8 8 Norte 12 Norte 0 -- -- 63
2020-07-09 03:00:00 20 5 Sudeste 10 Sudeste 0 -- -- 68
2020-07-09 02:00:00 23.2 6 Nordeste 21 Nordeste 0.2 -- -- 57
2020-07-09 01:00:00 24.9 11 Nordeste 19 Nordeste 0 -- -- 41
2020-07-09 00:00:00 27 12 Norte 26 Nordeste 0 -- -- 35
2020-07-08 23:00:00 27.6 14 Este 46 Sudeste 0 -- -- 35
2020-07-08 22:00:00 28.3 26 Sudeste 46 Este 0 -- -- 34
2020-07-08 21:00:00 29.8 28 Sudeste 56 Este 0 -- -- 33
2020-07-08 20:00:00 32.5 32 Sudeste 57 Sudeste 0 -- -- 29
2020-07-08 19:00:00 33.5 28 Sudeste 59 Sudeste 0 -- -- 27
2020-07-08 18:00:00 33.5 19 Sudeste 36 Este 0 -- -- 27
2020-07-08 17:00:00 33.8 18 Este 42 Sudeste 0 -- -- 26
2020-07-08 16:00:00 32.4 18 Sudeste 39 Sur 0.2 -- -- 28
2020-07-08 15:00:00 35.8 10 Sudeste 30 Este 0 -- -- 22
2020-07-08 14:00:00 37.2 18 Sudeste 39 Este 0 -- -- 21
2020-07-08 13:00:00 36.5 18 Este 32 Este 0 -- -- 22
2020-07-08 12:00:00 33.8 24 Este 37 Nordeste 0 -- -- 26
2020-07-08 11:00:00 29.8 16 Nordeste 25 Nordeste 0 -- -- 34
2020-07-08 10:00:00 25.4 20 Nordeste 47 Este 0.2 -- -- 43
2020-07-08 09:00:00 23.2 12 Este 36 Sudoeste 0 -- -- 48
2020-07-08 08:00:00 23.7 15 Nordeste 28 Nordeste 0 -- -- 43
2020-07-08 07:00:00 23.8 8 Noroeste 30 Sudeste 0 -- -- 50
2020-07-08 06:00:00 20.5 6 Sur 20 Este 0 -- -- 53
2020-07-08 05:00:00 21.3 9 Este 17 Este 0.2 -- -- 56
2020-07-08 04:00:00 22.5 12 Nordeste 24 Este 0 -- -- 45
2020-07-08 03:00:00 23.8 12 Nordeste 18 Nordeste 0 -- -- 42
2020-07-08 02:00:00 24.4 10 Nordeste 15 Nordeste 0 -- -- 40
2020-07-08 01:00:00 24 5 Nordeste 13 Nordeste 0 -- -- 37
2020-07-08 00:00:00 26.5 4 Este 8 Sudeste 0 -- -- 31
2020-07-07 23:00:00 29.5 5 Sudoeste 10 Sudoeste 0 -- -- 26
2020-07-07 22:00:00 33.4 9 Sudoeste 19 Sudoeste 0 -- -- 21
2020-07-07 21:00:00 36.2 8 Sudoeste 25 Sudoeste 0 -- -- 20
2020-07-07 20:00:00 38 10 Sudoeste 28 Oeste 0 -- -- 21
2020-07-07 19:00:00 38.7 12 Sudoeste 28 Sudoeste 0 -- -- 20
2020-07-07 18:00:00 38.5 12 Sudoeste 27 Oeste 0 -- -- 19
2020-07-07 17:00:00 38.3 18 Sudoeste 36 Oeste 0 -- -- 19
2020-07-07 16:00:00 38 15 Sudoeste 29 Oeste 0 -- -- 18
2020-07-07 15:00:00 36.7 10 Oeste 26 Oeste 0 -- -- 22
2020-07-07 14:00:00 35.8 8 Oeste 22 Oeste 0 -- -- 27
2020-07-07 13:00:00 34.4 6 Noroeste 13 Sudoeste 0 -- -- 27
2020-07-07 12:00:00 32.4 6 Este 14 Nordeste 0 -- -- 25
2020-07-07 11:00:00 28.7 10 Nordeste 17 Este 0 -- -- 25
2020-07-07 10:00:00 25.3 10 Este 19 Este 0 -- -- 27
2020-07-07 09:00:00 22 13 Este 21 Nordeste 0 -- -- 34
2020-07-07 08:00:00 19.8 11 Nordeste 18 Nordeste 0 -- -- 39
2020-07-07 07:00:00 18.7 11 Nordeste 20 Este 0 -- -- 41
2020-07-07 06:00:00 19.1 12 Este 19 Nordeste 0 -- -- 45
2020-07-07 05:00:00 20.1 14 Nordeste 23 Nordeste 0 -- -- 49
2020-07-07 04:00:00 20.8 12 Nordeste 21 Este 0 -- -- 51
2020-07-07 03:00:00 21.7 9 Este 25 Nordeste 0 -- -- 51
2020-07-07 02:00:00 23 18 Nordeste 30 Nordeste 0 -- -- 49
2020-07-07 01:00:00 24.5 15 Nordeste 31 Nordeste 0 -- -- 47
2020-07-07 00:00:00 26.4 22 Nordeste 33 Nordeste 0 -- -- 44
2020-07-06 23:00:00 29.1 22 Nordeste 39 Nordeste 0 -- -- 37
2020-07-06 22:00:00 32.4 15 Nordeste 27 Nordeste 0 -- -- 33
2020-07-06 21:00:00 34.3 17 Nordeste 24 Nordeste 0 -- -- 30
2020-07-06 20:00:00 34.6 10 Nordeste 21 Nordeste 0 -- -- 29
2020-07-06 19:00:00 36.9 10 Nordeste 22 Nordeste 0 -- -- 27
2020-07-06 18:00:00 36.6 9 Norte 20 Nordeste 0 -- -- 28
2020-07-06 17:00:00 36.8 14 Nordeste 23 Nordeste 0 -- -- 26
2020-07-06 16:00:00 35.9 12 Norte 23 Nordeste 0 -- -- 27
2020-07-06 15:00:00 36.2 9 Oeste 24 Norte 0 -- -- 27
2020-07-06 14:00:00 35 10 Norte 20 Nordeste 0 -- -- 28
2020-07-06 13:00:00 34.2 7 Nordeste 15 Este 0 -- -- 29
2020-07-06 12:00:00 32.2 8 Este 14 Nordeste 0 -- -- 32
2020-07-06 11:00:00 29.7 7 Nordeste 17 Nordeste 0 -- -- 37
2020-07-06 10:00:00 26.9 13 Nordeste 19 Nordeste 0 -- -- 43
2020-07-06 09:00:00 23.5 12 Este 19 Este 0 -- -- 53
2020-07-06 08:00:00 20.3 6 Este 12 Este 0 -- -- 60
2020-07-06 07:00:00 17.6 6 Nordeste 9 Nordeste 0 -- -- 62
2020-07-06 06:00:00 19.9 5 Este 16 Nordeste 0 -- -- 55
2020-07-06 05:00:00 20.9 10 Nordeste 19 Este 0 -- -- 52
2020-07-06 04:00:00 21.9 14 Nordeste 22 Nordeste 0 -- -- 49
2020-07-06 03:00:00 22.4 12 Nordeste 18 Este 0 -- -- 46
2020-07-06 02:00:00 22.9 9 Nordeste 16 Nordeste 0 -- -- 41
2020-07-06 01:00:00 23.8 10 Nordeste 18 Nordeste 0 -- -- 36
2020-07-06 00:00:00 24 5 Nordeste 8 Nordeste 0 -- -- 36
2020-07-05 23:00:00 26.9 7 Nordeste 11 Noroeste 0 -- -- 31
2020-07-05 22:00:00 30.4 3 Noroeste 8 Noroeste 0 -- -- 26
2020-07-05 21:00:00 35.3 4 Sudoeste 13 Sudoeste 0 -- -- 22
2020-07-05 20:00:00 36.9 6 Sudoeste 17 Oeste 0 -- -- 19
2020-07-05 19:00:00 36.7 7 Noroeste 22 Oeste 0 -- -- 18
2020-07-05 18:00:00 36.5 9 Nordeste 17 Oeste 0 -- -- 17
2020-07-05 17:00:00 36.6 7 Este 25 Sudeste 0 -- -- 19
2020-07-05 16:00:00 36.2 10 Sudoeste 20 Sudoeste 0 -- -- 19
2020-07-05 15:00:00 35.3 6 Sudoeste 18 Noroeste 0 -- -- 20
2020-07-05 14:00:00 33.9 8 Noroeste 19 Noroeste 0 -- -- 23
2020-07-05 13:00:00 32 5 Nordeste 13 Noroeste 0 -- -- 32
2020-07-05 12:00:00 30 6 Nordeste 12 Norte 0 -- -- 39
2020-07-05 11:00:00 27.9 6 Nordeste 13 Nordeste 0 -- -- 33
2020-07-05 10:00:00 24.4 8 Nordeste 17 Nordeste 0 -- -- 36
2020-07-05 09:00:00 20.7 10 Nordeste 22 Nordeste 0 -- -- 42
2020-07-05 08:00:00 17.9 13 Nordeste 19 Este 0 -- -- 49
2020-07-05 07:00:00 16.7 12 Nordeste 17 Nordeste 0 -- -- 50
2020-07-05 06:00:00 17.3 10 Nordeste 16 Nordeste 0 -- -- 48
2020-07-05 05:00:00 17.7 10 Este 15 Nordeste 0 -- -- 46
2020-07-05 04:00:00 18.6 9 Este 19 Este 0 -- -- 43
2020-07-05 03:00:00 19.9 12 Nordeste 22 Nordeste 0 -- -- 39
2020-07-05 02:00:00 20.9 13 Nordeste 22 Nordeste 0 -- -- 35
2020-07-05 01:00:00 22 15 Nordeste 22 Nordeste 0 -- -- 29
2020-07-05 00:00:00 22.4 7 Nordeste 13 Nordeste 0 -- -- 30
2020-07-04 23:00:00 25 12 Nordeste 21 Nordeste 0 -- -- 27
2020-07-04 22:00:00 28 3 Este 5 Nordeste 0 -- -- 28
2020-07-04 21:00:00 34.5 3 Este 12 Sudeste 0 -- -- 18
2020-07-04 20:00:00 35.2 4 Este 15 Este 0 -- -- 16
2020-07-04 19:00:00 35.2 4 Sur 14 Oeste 0 -- -- 16
2020-07-04 18:00:00 34.9 5 Oeste 18 Sudoeste 0 -- -- 16
2020-07-04 17:00:00 34.8 7 Oeste 19 Oeste 0 -- -- 17
2020-07-04 16:00:00 33.4 6 Nordeste 22 Oeste 0 -- -- 18
2020-07-04 15:00:00 32.4 5 Noroeste 18 Oeste 0 -- -- 20
2020-07-04 14:00:00 31.6 8 Oeste 18 Oeste 0 -- -- 22
2020-07-04 13:00:00 29.5 7 Norte 17 Noroeste 0 -- -- 24
2020-07-04 12:00:00 28.2 4 Oeste 14 Noroeste 0 -- -- 26
2020-07-04 11:00:00 26.6 8 Nordeste 14 Norte 0 -- -- 32
2020-07-04 10:00:00 23.7 6 Este 15 Este 0 -- -- 42
2020-07-04 09:00:00 20.2 7 Nordeste 13 Nordeste 0 -- -- 49
2020-07-04 08:00:00 16.7 9 Nordeste 13 Nordeste 0 -- -- 56
2020-07-04 07:00:00 14.4 8 Nordeste 13 Nordeste 0 -- -- 58
2020-07-04 06:00:00 15.4 12 Nordeste 17 Nordeste 0 -- -- 54
2020-07-04 05:00:00 16.2 11 Nordeste 17 Nordeste 0 -- -- 50
2020-07-04 04:00:00 16.8 12 Nordeste 15 Nordeste 0 -- -- 48
2020-07-04 03:00:00 17.9 12 Nordeste 16 Nordeste 0 -- -- 45
2020-07-04 02:00:00 19.5 11 Nordeste 17 Este 0 -- -- 41
2020-07-04 01:00:00 20.9 8 Nordeste 17 Nordeste 0 -- -- 41
2020-07-04 00:00:00 22.6 8 Nordeste 18 Nordeste 0 -- -- 37
2020-07-03 23:00:00 25.3 12 Nordeste 15 Nordeste 0 -- -- 31
2020-07-03 22:00:00 28.1 9 Norte 21 Norte 0 -- -- 27
2020-07-03 21:00:00 32.1 4 Sur 13 Norte 0 -- -- 25
2020-07-03 20:00:00 32.6 4 Este 16 Este 0 -- -- 23
2020-07-03 19:00:00 32.2 9 Nordeste 20 Sudoeste 0 -- -- 21
2020-07-03 18:00:00 32.5 8 Noroeste 14 Noroeste 0 -- -- 20
2020-07-03 17:00:00 31.8 6 Norte 21 Nordeste 0 -- -- 22
2020-07-03 16:00:00 30.7 4 Nordeste 18 Noroeste 0 -- -- 24
2020-07-03 15:00:00 30.1 4 Sur 17 Nordeste 0 -- -- 26
2020-07-03 14:00:00 28.7 6 Norte 20 Oeste 0 -- -- 30
2020-07-03 13:00:00 27.7 11 Nordeste 33 Norte 0 -- -- 34
2020-07-03 12:00:00 25.7 13 Nordeste 25 Nordeste 0 -- -- 42
2020-07-03 11:00:00 23.4 14 Nordeste 28 Norte 0 -- -- 49
2020-07-03 10:00:00 20.4 19 Nordeste 32 Nordeste 0 -- -- 55
2020-07-03 09:00:00 18 21 Nordeste 32 Nordeste 0 -- -- 61
2020-07-03 08:00:00 16.1 22 Nordeste 35 Nordeste 0 -- -- 66
2020-07-03 07:00:00 15.2 22 Nordeste 35 Nordeste 0 -- -- 69
2020-07-03 06:00:00 15.6 24 Nordeste 38 Nordeste 0 -- -- 69
2020-07-03 05:00:00 16.1 19 Nordeste 33 Nordeste 0 -- -- 68
2020-07-03 04:00:00 17 23 Nordeste 35 Nordeste 0 -- -- 67
2020-07-03 03:00:00 17.9 20 Nordeste 33 Nordeste 0 -- -- 66
2020-07-03 02:00:00 19.6 23 Nordeste 34 Nordeste 0 -- -- 62
2020-07-03 01:00:00 22.9 17 Nordeste 27 Norte 0 -- -- 55
2020-07-03 00:00:00 24.2 8 Nordeste 15 Nordeste 0 -- -- 35
2020-07-02 23:00:00 26.5 6 Noroeste 16 Noroeste 0 -- -- 32
2020-07-02 22:00:00 28 8 Noroeste 27 Noroeste 0 -- -- 33
2020-07-02 21:00:00 30.7 13 Oeste 36 Sudoeste 0 -- -- 29
2020-07-02 20:00:00 32.1 19 Sudoeste 37 Oeste 0 -- -- 24
2020-07-02 19:00:00 33.1 21 Sudoeste 40 Sudoeste 0 -- -- 23
2020-07-02 18:00:00 33.7 15 Oeste 34 Oeste 0 -- -- 23
2020-07-02 17:00:00 33.1 22 Oeste 40 Sudoeste 0 -- -- 21
2020-07-02 16:00:00 32.8 26 Sudoeste 41 Oeste 0 -- -- 20
2020-07-02 15:00:00 32.6 22 Sudoeste 39 Sudoeste 0 -- -- 21
2020-07-02 14:00:00 32.3 22 Sudoeste 39 Oeste 0 -- -- 23
2020-07-02 13:00:00 31 18 Sudoeste 36 Sudoeste 0 -- -- 27
2020-07-02 12:00:00 29.7 17 Oeste 31 Oeste 0 -- -- 32
2020-07-02 11:00:00 27.7 9 Sudoeste 16 Sudoeste 0 -- -- 36
2020-07-02 10:00:00 24.8 5 Nordeste 8 Nordeste 0 -- -- 38
2020-07-02 09:00:00 21.5 4 Este 9 Este 0 -- -- 47
2020-07-02 08:00:00 18.1 7 Nordeste 12 Nordeste 0 -- -- 56
2020-07-02 07:00:00 15.6 0 Calma 9 Nordeste 0 -- -- 63
2020-07-02 06:00:00 16.3 4 Este 13 Este 0 -- -- 60
2020-07-02 05:00:00 17 2 Este 7 Nordeste 0 -- -- 57
2020-07-02 04:00:00 17.8 6 Nordeste 8 Nordeste 0 -- -- 54
2020-07-02 03:00:00 18.7 6 Nordeste 8 Nordeste 0 -- -- 54
2020-07-02 02:00:00 20.5 5 Este 10 Nordeste 0 -- -- 48
2020-07-02 01:00:00 22.3 0 Calma 6 Este 0 -- -- 43
2020-07-02 00:00:00 25.7 3 Este 7 Nordeste 0 -- -- 34
2020-07-01 23:00:00 29 4 Oeste 14 Oeste 0 -- -- 28
2020-07-01 22:00:00 30.9 7 Noroeste 16 Norte 0 -- -- 25
2020-07-01 21:00:00 32.7 9 Noroeste 23 Oeste 0 -- -- 24
2020-07-01 20:00:00 34 18 Oeste 29 Oeste 0 -- -- 24
2020-07-01 19:00:00 33.8 13 Oeste 30 Sudoeste 0 -- -- 27
2020-07-01 18:00:00 34.6 14 Sudoeste 36 Sudoeste 0 -- -- 23
2020-07-01 17:00:00 35.9 15 Sudoeste 40 Sudoeste 0 -- -- 22
2020-07-01 16:00:00 34.9 23 Sudoeste 37 Sudoeste 0 -- -- 23
2020-07-01 15:00:00 34.4 20 Sudoeste 36 Sudoeste 0 -- -- 25
2020-07-01 14:00:00 33.5 24 Sudoeste 39 Sudoeste 0 -- -- 25
2020-07-01 13:00:00 32.6 20 Sudoeste 35 Sudoeste 0 -- -- 22
2020-07-01 12:00:00 31.3 22 Sudoeste 40 Sudoeste 0 -- -- 28
2020-07-01 11:00:00 29.5 15 Sudoeste 26 Sudoeste 0 -- -- 33
2020-07-01 10:00:00 26.7 9 Oeste 15 Oeste 0 -- -- 40
2020-07-01 09:00:00 23.2 0 Calma 8 Nordeste 0 -- -- 58
2020-07-01 08:00:00 18.7 3 Nordeste 5 Nordeste 0 -- -- 70
2020-07-01 07:00:00 16.6 0 Calma 5 Nordeste 0 -- -- 74
2020-07-01 06:00:00 17.5 0 Calma 6 Este 0 -- -- 69
2020-07-01 05:00:00 18.7 4 Este 7 Este 0 -- -- 67
2020-07-01 04:00:00 19.9 0 Calma 6 Nordeste 0 -- -- 62
2020-07-01 03:00:00 21.7 2 Este 10 Este 0 -- -- 57
2020-07-01 02:00:00 24 8 Este 23 Nordeste 0 -- -- 52
2020-07-01 01:00:00 25.2 12 Nordeste 20 Este 0 -- -- 46
2020-07-01 00:00:00 26 9 Nordeste 11 Nordeste 0 -- -- 37
2020-06-30 23:00:00 29.6 6 Oeste 13 Sudoeste 0 -- -- 31
2020-06-30 22:00:00 32.4 4 Sudoeste 24 Oeste 0 -- -- 26
2020-06-30 21:00:00 35.4 16 Oeste 31 Oeste 0 -- -- 22
2020-06-30 20:00:00 36.9 13 Sudoeste 34 Sudoeste 0 -- -- 21
2020-06-30 19:00:00 37.4 25 Sudoeste 37 Sudoeste 0 -- -- 20
2020-06-30 18:00:00 38 19 Sudoeste 33 Sudoeste 0 -- -- 20
2020-06-30 17:00:00 37.9 21 Oeste 35 Oeste 0 -- -- 20
2020-06-30 16:00:00 37.9 14 Sur 38 Sudoeste 0 -- -- 19
2020-06-30 15:00:00 37.1 13 Sudoeste 32 Sudoeste 0 -- -- 22
2020-06-30 14:00:00 35.6 14 Sudoeste 27 Oeste 0 -- -- 25
2020-06-30 13:00:00 34.2 7 Sur 17 Sudoeste 0 -- -- 29
2020-06-30 12:00:00 31.7 5 Sur 19 Nordeste 0 -- -- 35
2020-06-30 11:00:00 29.1 6 Norte 15 Nordeste 0 -- -- 40
2020-06-30 10:00:00 26.9 8 Nordeste 12 Nordeste 0 -- -- 48
2020-06-30 09:00:00 23.5 5 Nordeste 10 Nordeste 0 -- -- 60
2020-06-30 08:00:00 20 5 Nordeste 7 Nordeste 0 -- -- 69
2020-06-30 07:00:00 18.6 3 Sudeste 10 Este 0 -- -- 73
2020-06-30 06:00:00 19.9 7 Este 15 Este 0 -- -- 72
2020-06-30 05:00:00 20.7 8 Este 15 Nordeste 0 -- -- 69
2020-06-30 04:00:00 21.5 8 Este 18 Nordeste 0 -- -- 67
2020-06-30 03:00:00 22.5 10 Nordeste 21 Nordeste 0 -- -- 63
2020-06-30 02:00:00 23.7 14 Nordeste 23 Nordeste 0 -- -- 58
2020-06-30 01:00:00 24 12 Nordeste 19 Nordeste 0 -- -- 45
2020-06-30 00:00:00 23 3 Sudeste 12 Norte 0 -- -- 39
2020-06-29 23:00:00 25.2 0 Calma 7 Sur 0 -- -- 31
2020-06-29 22:00:00 29.1 5 Sur 16 Oeste 0 -- -- 26
2020-06-29 21:00:00 34.9 11 Sudoeste 23 Sudoeste 0 -- -- 18
2020-06-29 20:00:00 36.3 12 Sudoeste 29 Oeste 0 -- -- 16
2020-06-29 19:00:00 36.7 18 Oeste 32 Sudoeste 0 -- -- 18
2020-06-29 18:00:00 37 15 Oeste 31 Oeste 0 -- -- 20
2020-06-29 17:00:00 36.7 13 Oeste 30 Sudoeste 0 -- -- 19
2020-06-29 16:00:00 36.2 13 Sudoeste 32 Oeste 0 -- -- 24
2020-06-29 15:00:00 35 15 Sudoeste 30 Sudoeste 0 -- -- 25
2020-06-29 14:00:00 34.1 18 Oeste 30 Oeste 0 -- -- 27
2020-06-29 13:00:00 32.9 11 Sudoeste 24 Sudoeste 0 -- -- 30
2020-06-29 12:00:00 30.9 4 Oeste 14 Oeste 0 -- -- 38
2020-06-29 11:00:00 28.6 3 Sur 10 Sur 0 -- -- 42
2020-06-29 10:00:00 26.7 4 Este 14 Nordeste 0 -- -- 48
2020-06-29 09:00:00 23.3 7 Nordeste 12 Nordeste 0 -- -- 60
2020-06-29 08:00:00 19.9 5 Este 12 Nordeste 0 -- -- 69
2020-06-29 07:00:00 16.9 4 Este 9 Nordeste 0 -- -- 73
2020-06-29 06:00:00 17.2 6 Nordeste 8 Nordeste 0 -- -- 70
2020-06-29 05:00:00 17.8 4 Nordeste 9 Este 0 -- -- 65
2020-06-29 04:00:00 19.3 7 Nordeste 11 Nordeste 0 -- -- 61
2020-06-29 03:00:00 19.1 7 Nordeste 11 Nordeste 0 -- -- 60
2020-06-29 02:00:00 20.2 4 Nordeste 9 Nordeste 0 -- -- 54
2020-06-29 01:00:00 21.8 4 Nordeste 8 Nordeste 0 -- -- 46
2020-06-29 00:00:00 24.8 0 Calma 14 Nordeste 0 -- -- 40
2020-06-28 23:00:00 26.3 7 Norte 17 Norte 0 -- -- 33
2020-06-28 22:00:00 29.3 4 Sur 9 Oeste 0 -- -- 30
2020-06-28 21:00:00 33.7 5 Sudoeste 18 Sudoeste 0 -- -- 25
2020-06-28 20:00:00 34.5 12 Sudoeste 19 Oeste 0 -- -- 24
2020-06-28 19:00:00 35 11 Oeste 24 Oeste 0 -- -- 24
2020-06-28 18:00:00 34.7 10 Oeste 26 Oeste 0 -- -- 24
2020-06-28 17:00:00 34.6 16 Oeste 26 Sudoeste 0 -- -- 25
2020-06-28 16:00:00 34 8 Noroeste 27 Sudoeste 0 -- -- 25
2020-06-28 15:00:00 32.8 8 Sudoeste 27 Oeste 0 -- -- 28
2020-06-28 14:00:00 32.2 13 Oeste 28 Oeste 0 -- -- 31
2020-06-28 13:00:00 31.3 9 Oeste 19 Oeste 0 -- -- 35
2020-06-28 12:00:00 29.8 3 Noroeste 12 Norte 0 -- -- 38
2020-06-28 11:00:00 27.3 4 Norte 12 Norte 0 -- -- 44
2020-06-28 10:00:00 25.1 3 Este 11 Nordeste 0 -- -- 50
2020-06-28 09:00:00 21.8 6 Nordeste 9 Este 0 -- -- 58
2020-06-28 08:00:00 18.5 3 Este 8 Nordeste 0 -- -- 68
2020-06-28 07:00:00 15.5 2 Nordeste 6 Este 0 -- -- 74
2020-06-28 06:00:00 16 3 Este 6 Nordeste 0 -- -- 71
2020-06-28 05:00:00 17 4 Nordeste 9 Nordeste 0 -- -- 68
2020-06-28 04:00:00 18.5 3 Nordeste 10 Nordeste 0 -- -- 62
2020-06-28 03:00:00 18.9 5 Este 9 Nordeste 0 -- -- 62
2020-06-28 02:00:00 19.8 4 Nordeste 6 Este 0 -- -- 55
2020-06-28 01:00:00 22.5 3 Nordeste 9 Nordeste 0 -- -- 49
2020-06-28 00:00:00 25.6 7 Nordeste 15 Nordeste 0 -- -- 41
2020-06-27 23:00:00 27.5 9 Nordeste 21 Norte 0 -- -- 36
2020-06-27 22:00:00 28.6 8 Noroeste 14 Noroeste 0 -- -- 35
2020-06-27 21:00:00 29.8 7 Sudoeste 16 Sur 0 -- -- 32
2020-06-27 20:00:00 32.3 9 Sudoeste 22 Sudoeste 0 -- -- 28
2020-06-27 19:00:00 33.2 8 Sur 25 Sudoeste 0 -- -- 26
2020-06-27 18:00:00 33.1 9 Sudoeste 25 Oeste 0 -- -- 27
2020-06-27 17:00:00 32.6 10 Sudeste 27 Sudoeste 0 -- -- 27
2020-06-27 16:00:00 32 11 Oeste 22 Oeste 0 -- -- 28
2020-06-27 15:00:00 31.1 15 Oeste 34 Sudoeste 0 -- -- 29
2020-06-27 14:00:00 30.1 7 Sudoeste 23 Sudoeste 0 -- -- 30
2020-06-27 13:00:00 28.7 13 Oeste 25 Oeste 0 -- -- 33
2020-06-27 12:00:00 27.5 12 Sudoeste 19 Sudoeste 0 -- -- 32
2020-06-27 11:00:00 25.4 4 Sur 13 Oeste 0 -- -- 35
2020-06-27 10:00:00 22.3 8 Oeste 14 Sudoeste 0 -- -- 43
2020-06-27 09:00:00 19 3 Este 12 Nordeste 0 -- -- 55
2020-06-27 08:00:00 15.3 8 Este 13 Nordeste 0 -- -- 66
2020-06-27 07:00:00 14.2 6 Este 10 Nordeste 0 -- -- 65
2020-06-27 06:00:00 14 5 Nordeste 9 Nordeste 0 -- -- 68
2020-06-27 05:00:00 13.7 0 Calma 6 Nordeste 0 -- -- 64
2020-06-27 04:00:00 14.3 4 Nordeste 6 Nordeste 0 -- -- 62
2020-06-27 03:00:00 15.2 3 Nordeste 5 Nordeste 0 -- -- 59
2020-06-27 02:00:00 16.5 3 Nordeste 8 Este 0 -- -- 51
2020-06-27 01:00:00 18.4 0 Calma 8 Nordeste 0 -- -- 44
2020-06-27 00:00:00 21.3 0 Calma 12 Oeste 0 -- -- 35
2020-06-26 23:00:00 23.8 6 Sudoeste 22 Sudoeste 0 -- -- 31
2020-06-26 22:00:00 26.9 15 Oeste 28 Oeste 0 -- -- 28
2020-06-26 21:00:00 28 12 Sudoeste 30 Sudoeste 0 -- -- 24
2020-06-26 20:00:00 29.2 18 Oeste 39 Sudoeste 0 -- -- 25
2020-06-26 19:00:00 31 21 Oeste 41 Sudoeste 0 -- -- 25
2020-06-26 18:00:00 31.9 19 Oeste 36 Sudoeste 0 -- -- 25
2020-06-26 17:00:00 32 22 Oeste 38 Sudoeste 0 -- -- 27
2020-06-26 16:00:00 31.8 20 Sudoeste 40 Oeste 0 -- -- 28
2020-06-26 15:00:00 30.6 22 Oeste 35 Oeste 0 -- -- 30
2020-06-26 14:00:00 30.6 18 Sudoeste 33 Sudoeste 0 -- -- 31
2020-06-26 13:00:00 29 16 Sudoeste 35 Oeste 0 -- -- 37
2020-06-26 12:00:00 28.9 15 Oeste 30 Oeste 0 -- -- 37
2020-06-26 11:00:00 26.9 7 Sudoeste 16 Sudoeste 0 -- -- 42
2020-06-26 10:00:00 24.6 3 Oeste 10 Sudoeste 0 -- -- 48
2020-06-26 09:00:00 22.2 5 Nordeste 13 Nordeste 0 -- -- 56
2020-06-26 08:00:00 19 7 Nordeste 15 Nordeste 0 -- -- 73
2020-06-26 07:00:00 19 7 Norte 16 Nordeste 0 -- -- 69
2020-06-26 06:00:00 20.9 4 Sudeste 18 Sudeste 0 -- -- 52
2020-06-26 05:00:00 21 5 Sudeste 12 Sudeste 0 -- -- 51
2020-06-26 04:00:00 21.5 5 Oeste 17 Sudoeste 0 -- -- 50
2020-06-26 03:00:00 21.4 6 Norte 14 Norte 0 -- -- 55
2020-06-26 02:00:00 20 10 Nordeste 20 Nordeste 0 -- -- 78
2020-06-26 01:00:00 19.9 9 Nordeste 18 Nordeste 0 -- -- 81
2020-06-26 00:00:00 20.2 9 Este 22 Nordeste 0 -- -- 78
2020-06-25 23:00:00 21.4 17 Nordeste 27 Nordeste 0 -- -- 73
2020-06-25 22:00:00 24.6 8 Nordeste 18 Nordeste 0 -- -- 62
2020-06-25 21:00:00 27.2 5 Este 13 Oeste 1.2 -- -- 66
2020-06-25 20:00:00 31.9 10 Oeste 35 Sudoeste 0 -- -- 33
2020-06-25 19:00:00 34.4 16 Sudoeste 30 Sur 0 -- -- 27
2020-06-25 18:00:00 34.1 15 Sur 32 Sur 0 -- -- 26
2020-06-25 17:00:00 33.8 12 Sur 35 Sudeste 0 -- -- 27
2020-06-25 16:00:00 34.7 13 Sur 30 Oeste 0 -- -- 27
2020-06-25 15:00:00 34.8 13 Sudoeste 33 Oeste 0 -- -- 28
2020-06-25 14:00:00 33.8 9 Sudoeste 24 Sudeste 0 -- -- 30
2020-06-25 13:00:00 32 12 Sur 22 Sur 0 -- -- 31
2020-06-25 12:00:00 30.3 9 Sudoeste 22 Sudeste 0 -- -- 34
2020-06-25 11:00:00 28.2 4 Norte 12 Norte 0 -- -- 40
2020-06-25 10:00:00 25.7 8 Nordeste 13 Nordeste 0 -- -- 48
2020-06-25 09:00:00 22.1 8 Nordeste 14 Este 0 -- -- 59
2020-06-25 08:00:00 19.5 8 Nordeste 15 Nordeste 0 -- -- 67
2020-06-25 07:00:00 19.1 9 Nordeste 15 Nordeste 0 -- -- 66
2020-06-25 06:00:00 19.7 8 Nordeste 17 Nordeste 0 -- -- 63
2020-06-25 05:00:00 18.2 0 Calma 13 Nordeste 0 -- -- 70
2020-06-25 04:00:00 18.9 9 Este 14 Nordeste 0 -- -- 70
2020-06-25 03:00:00 20 6 Este 14 Nordeste 0 -- -- 65
2020-06-25 02:00:00 20.7 5 Este 14 Nordeste 0 -- -- 62
2020-06-25 01:00:00 22 4 Este 14 Nordeste 0 -- -- 60
2020-06-25 00:00:00 23.9 8 Este 16 Nordeste 0 -- -- 53
2020-06-24 23:00:00 24.5 6 Nordeste 14 Nordeste 0 -- -- 46
2020-06-24 22:00:00 27.5 11 Nordeste 16 Nordeste 0 -- -- 41
2020-06-24 21:00:00 31.2 9 Nordeste 13 Nordeste 0 -- -- 29
2020-06-24 20:00:00 32.3 7 Nordeste 15 Nordeste 0 -- -- 26
2020-06-24 19:00:00 32.7 5 Nordeste 16 Nordeste 0 -- -- 25
2020-06-24 18:00:00 31.5 9 Nordeste 18 Nordeste 0 -- -- 34
2020-06-24 17:00:00 30.1 14 Nordeste 28 Nordeste 0 -- -- 37
2020-06-24 16:00:00 28.9 14 Nordeste 28 Nordeste 0 -- -- 39
2020-06-24 15:00:00 27.5 19 Nordeste 44 Este 0 -- -- 43
2020-06-24 14:00:00 26.4 29 Nordeste 40 Nordeste 0 -- -- 48
2020-06-24 13:00:00 28.3 9 Este 21 Sudeste 0 -- -- 39
2020-06-24 12:00:00 28.3 15 Sur 29 Sudeste 0 -- -- 40
2020-06-24 11:00:00 28.8 6 Sudeste 12 Este 0 -- -- 37
2020-06-24 10:00:00 27.4 5 Este 10 Este 0 -- -- 45
2020-06-24 09:00:00 23.9 5 Nordeste 9 Este 0 -- -- 56
2020-06-24 08:00:00 20.2 8 Nordeste 10 Nordeste 0 -- -- 68
2020-06-24 07:00:00 20.6 3 Este 6 Sur 0 -- -- 66
2020-06-24 06:00:00 23 3 Norte 22 Noroeste 0 -- -- 56
2020-06-24 05:00:00 24.5 8 Norte 49 Sudeste 0 -- -- 49
2020-06-24 04:00:00 24.2 26 Este 40 Este 0.4 -- -- 50
2020-06-24 03:00:00 24.9 6 Sudeste 26 Este 0 -- -- 43
2020-06-24 02:00:00 25.8 8 Norte 18 Nordeste 0 -- -- 41
2020-06-24 01:00:00 27.3 10 Nordeste 44 Nordeste 0 -- -- 36
2020-06-24 00:00:00 27.5 21 Nordeste 35 Nordeste 0 -- -- 35
2020-06-23 23:00:00 26.9 8 Este 22 Nordeste 0 -- -- 36
2020-06-23 22:00:00 29.1 2 Sudeste 6 Oeste 0 -- -- 33
2020-06-23 21:00:00 36.1 3 Sudoeste 15 Oeste 0 -- -- 20
2020-06-23 20:00:00 37.2 6 Sudoeste 24 Sudoeste 0 -- -- 17
2020-06-23 19:00:00 37.6 7 Sudoeste 22 Oeste 0 -- -- 16
2020-06-23 18:00:00 37.4 8 Oeste 22 Noroeste 0 -- -- 19
2020-06-23 17:00:00 37.3 8 Sudoeste 21 Oeste 0 -- -- 19
2020-06-23 16:00:00 36.8 6 Oeste 21 Sur 0 -- -- 22
2020-06-23 15:00:00 35.5 7 Sur 20 Sudoeste 0 -- -- 26
2020-06-23 14:00:00 34.4 7 Sur 26 Noroeste 0 -- -- 28
2020-06-23 13:00:00 31.9 5 Oeste 15 Sudeste 0 -- -- 32
2020-06-23 12:00:00 30.7 6 Este 13 Sudoeste 0 -- -- 34
2020-06-23 11:00:00 28.6 5 Sudeste 13 Sudeste 0 -- -- 38
2020-06-23 10:00:00 26.4 6 Sudeste 13 Sudeste 0 -- -- 42
2020-06-23 09:00:00 22.8 8 Nordeste 13 Nordeste 0 -- -- 53
2020-06-23 08:00:00 19.1 9 Nordeste 15 Este 0 -- -- 62
2020-06-23 07:00:00 17.4 9 Nordeste 14 Nordeste 0 -- -- 65
2020-06-23 06:00:00 17.6 6 Este 14 Este 0 -- -- 63
2020-06-23 05:00:00 18.6 9 Este 14 Este 0 -- -- 60
2020-06-23 04:00:00 19.8 10 Nordeste 14 Este 0 -- -- 56
2020-06-23 03:00:00 21.2 5 Nordeste 16 Nordeste 0 -- -- 51
2020-06-23 02:00:00 22.3 9 Este 19 Nordeste 0 -- -- 45
2020-06-23 01:00:00 23.4 12 Nordeste 18 Nordeste 0 -- -- 40
2020-06-23 00:00:00 23.6 9 Nordeste 13 Nordeste 0 -- -- 42
2020-06-22 23:00:00 25.4 6 Nordeste 9 Nordeste 0 -- -- 39
2020-06-22 22:00:00 29.4 4 Este 9 Noroeste 0 -- -- 34
2020-06-22 21:00:00 34.1 5 Noroeste 12 Norte 0 -- -- 22
2020-06-22 20:00:00 35.3 4 Oeste 13 Noroeste 0 -- -- 22
2020-06-22 19:00:00 35.4 11 Oeste 17 Oeste 0 -- -- 22
2020-06-22 18:00:00 35.2 6 Oeste 20 Noroeste 0 -- -- 24
2020-06-22 17:00:00 35.2 9 Noroeste 20 Oeste 0 -- -- 23
2020-06-22 16:00:00 34.1 8 Norte 19 Noroeste 0 -- -- 25
2020-06-22 15:00:00 33.5 9 Norte 19 Norte 0 -- -- 27
2020-06-22 14:00:00 32.3 9 Nordeste 24 Nordeste 0 -- -- 30
2020-06-22 13:00:00 31.1 9 Nordeste 21 Nordeste 0 -- -- 33
2020-06-22 12:00:00 29 10 Nordeste 19 Nordeste 0 -- -- 37
2020-06-22 11:00:00 26.1 11 Nordeste 23 Nordeste 0 -- -- 43
2020-06-22 10:00:00 23.1 17 Nordeste 28 Nordeste 0 -- -- 49
2020-06-22 09:00:00 20.5 17 Nordeste 30 Nordeste 0 -- -- 55
2020-06-22 08:00:00 18.2 16 Nordeste 25 Nordeste 0 -- -- 63
2020-06-22 07:00:00 16.7 14 Nordeste 22 Nordeste 0 -- -- 66
2020-06-22 06:00:00 17.1 14 Nordeste 26 Nordeste 0 -- -- 65
2020-06-22 05:00:00 17.9 18 Nordeste 28 Nordeste 0 -- -- 63
2020-06-22 04:00:00 18.9 17 Nordeste 28 Nordeste 0 -- -- 60
2020-06-22 03:00:00 19.7 17 Nordeste 28 Nordeste 0 -- -- 58
2020-06-22 02:00:00 21.1 19 Nordeste 33 Nordeste 0 -- -- 54
2020-06-22 01:00:00 23 21 Nordeste 34 Nordeste 0 -- -- 48
2020-06-22 00:00:00 22.8 13 Nordeste 19 Nordeste 0 -- -- 40
2020-06-21 23:00:00 25.2 6 Nordeste 18 Norte 0 -- -- 36
2020-06-21 22:00:00 29.2 10 Norte 19 Norte 0 -- -- 28
2020-06-21 21:00:00 33.5 5 Noroeste 10 Noroeste 0 -- -- 23
2020-06-21 20:00:00 34.4 3 Sur 17 Oeste 0 -- -- 21
2020-06-21 19:00:00 34.6 5 Oeste 27 Sudoeste 0 -- -- 21
2020-06-21 18:00:00 34.3 10 Oeste 26 Oeste 0 -- -- 21
2020-06-21 17:00:00 34.4 13 Oeste 30 Oeste 0 -- -- 19
2020-06-21 16:00:00 34.1 8 Sudoeste 27 Sudoeste 0 -- -- 21
2020-06-21 15:00:00 32.4 12 Sudoeste 25 Oeste 0 -- -- 22
2020-06-21 14:00:00 31.7 9 Sudoeste 23 Sudoeste 0 -- -- 24
2020-06-21 13:00:00 30.6 8 Oeste 21 Oeste 0 -- -- 26
2020-06-21 12:00:00 29.4 6 Noroeste 14 Oeste 0 -- -- 28
2020-06-21 11:00:00 26.9 5 Nordeste 10 Nordeste 0 -- -- 34
2020-06-21 10:00:00 23.5 3 Sudeste 8 Nordeste 0 -- -- 43
2020-06-21 09:00:00 20.3 6 Nordeste 14 Nordeste 0 -- -- 50
2020-06-21 08:00:00 16.6 8 Nordeste 11 Nordeste 0 -- -- 59
2020-06-21 07:00:00 13.7 7 Nordeste 12 Nordeste 0 -- -- 68
2020-06-21 06:00:00 14.1 6 Nordeste 10 Nordeste 0 -- -- 65
2020-06-21 05:00:00 14.6 8 Nordeste 11 Nordeste 0 -- -- 64
2020-06-21 04:00:00 15.3 6 Nordeste 9 Nordeste 0 -- -- 60
2020-06-21 03:00:00 16.7 2 Nordeste 8 Nordeste 0 -- -- 53
2020-06-21 02:00:00 17.8 6 Nordeste 10 Este 0 -- -- 50
2020-06-21 01:00:00 19.6 3 Nordeste 8 Norte 0 -- -- 46
2020-06-21 00:00:00 21.5 5 Sur 9 Norte 0 -- -- 39
2020-06-20 23:00:00 24.4 3 Sudoeste 10 Sur 0 -- -- 35
2020-06-20 22:00:00 27.1 5 Sudoeste 15 Sudoeste 0 -- -- 26
2020-06-20 21:00:00 30.4 8 Sudoeste 22 Sudoeste 0 -- -- 22
2020-06-20 20:00:00 32.1 13 Sudoeste 26 Sudoeste 0 -- -- 19
2020-06-20 19:00:00 32.7 12 Oeste 33 Sudoeste 0 -- -- 18
2020-06-20 18:00:00 32.7 13 Sudoeste 32 Oeste 0 -- -- 19
2020-06-20 17:00:00 32.6 13 Sudoeste 32 Sudoeste 0 -- -- 20
2020-06-20 16:00:00 31.9 14 Oeste 31 Sudoeste 0 -- -- 22
2020-06-20 15:00:00 30.9 14 Oeste 28 Sudoeste 0 -- -- 24
2020-06-20 14:00:00 30 12 Oeste 28 Sudoeste 0 -- -- 26
2020-06-20 13:00:00 29.4 13 Oeste 30 Oeste 0 -- -- 26
2020-06-20 12:00:00 28 7 Oeste 22 Sudoeste 0 -- -- 29
2020-06-20 11:00:00 25.6 3 Sudeste 10 Nordeste 0 -- -- 36
2020-06-20 10:00:00 22.3 5 Nordeste 12 Nordeste 0 -- -- 43
2020-06-20 09:00:00 19 10 Nordeste 14 Nordeste 0 -- -- 50
2020-06-20 08:00:00 15.5 6 Nordeste 10 Nordeste 0 -- -- 60
2020-06-20 07:00:00 12.4 5 Nordeste 12 Nordeste 0 -- -- 70
2020-06-20 06:00:00 12.3 5 Este 9 Nordeste 0 -- -- 71
2020-06-20 05:00:00 12.6 7 Nordeste 10 Este 0 -- -- 68
2020-06-20 04:00:00 14.2 5 Nordeste 8 Nordeste 0 -- -- 63
2020-06-20 03:00:00 15.5 5 Norte 9 Nordeste 0 -- -- 60
2020-06-20 02:00:00 16.6 0 Calma 6 Este 0 -- -- 55
2020-06-20 01:00:00 18.8 4 Norte 8 Norte 0 -- -- 47
2020-06-20 00:00:00 21.5 2 Sur 9 Oeste 0 -- -- 39
2020-06-19 23:00:00 24 7 Oeste 13 Sudoeste 0 -- -- 32
2020-06-19 22:00:00 25 6 Sur 9 Sur 0 -- -- 27
2020-06-19 21:00:00 28.1 6 Sudoeste 22 Oeste 0 -- -- 25
2020-06-19 20:00:00 30.5 8 Sudoeste 24 Sudoeste 0 -- -- 22
2020-06-19 19:00:00 30.7 13 Oeste 32 Oeste 0 -- -- 22
2020-06-19 18:00:00 30.9 12 Sudoeste 28 Sudoeste 0 -- -- 23
2020-06-19 17:00:00 30.6 17 Sudoeste 31 Sudoeste 0 -- -- 27
2020-06-19 16:00:00 29.9 13 Sudoeste 29 Oeste 0 -- -- 31
2020-06-19 15:00:00 29.1 15 Oeste 36 Oeste 0 -- -- 33
2020-06-19 14:00:00 28.3 12 Sudoeste 27 Oeste 0 -- -- 32
2020-06-19 13:00:00 27 10 Oeste 24 Oeste 0 -- -- 37
2020-06-19 12:00:00 25 6 Nordeste 13 Este 0 -- -- 53
2020-06-19 11:00:00 22.2 4 Noroeste 12 Este 0 -- -- 62
2020-06-19 10:00:00 19.7 7 Nordeste 14 Nordeste 0 -- -- 65
2020-06-19 09:00:00 17.1 10 Nordeste 17 Nordeste 0 -- -- 69
2020-06-19 08:00:00 15 7 Nordeste 12 Este 0 -- -- 74
2020-06-19 07:00:00 13.3 5 Este 12 Nordeste 0 -- -- 79
2020-06-19 06:00:00 13.7 5 Este 12 Nordeste 0 -- -- 78
2020-06-19 05:00:00 14.3 7 Este 13 Nordeste 0 -- -- 75
2020-06-19 04:00:00 15.3 9 Nordeste 15 Nordeste 0 -- -- 72
2020-06-19 03:00:00 16.2 9 Este 21 Nordeste 0 -- -- 69
2020-06-19 02:00:00 17.6 11 Nordeste 26 Nordeste 0 -- -- 66
2020-06-19 01:00:00 19.2 14 Nordeste 22 Nordeste 0 -- -- 61
2020-06-19 00:00:00 19.9 6 Nordeste 19 Norte 0 -- -- 49
2020-06-18 23:00:00 21.7 5 Este 16 Norte 0 -- -- 43
2020-06-18 22:00:00 24.6 10 Norte 22 Oeste 0 -- -- 36
2020-06-18 21:00:00 26.4 12 Sudoeste 27 Sudoeste 0 -- -- 27
2020-06-18 20:00:00 28.3 18 Sudoeste 34 Oeste 0 -- -- 25
2020-06-18 19:00:00 29.4 13 Sudoeste 29 Sudoeste 0 -- -- 26
2020-06-18 18:00:00 29.4 14 Sudoeste 39 Oeste 0 -- -- 27
2020-06-18 17:00:00 29.2 11 Oeste 30 Oeste 0 -- -- 29
2020-06-18 16:00:00 28.6 13 Sudoeste 30 Oeste 0 -- -- 29
2020-06-18 15:00:00 27.4 13 Sudoeste 27 Oeste 0 -- -- 31
2020-06-18 14:00:00 26.8 14 Oeste 44 Noroeste 0 -- -- 31
2020-06-18 13:00:00 25.8 10 Oeste 30 Oeste 0 -- -- 32
2020-06-18 12:00:00 24.6 4 Noroeste 16 Oeste 0 -- -- 39
2020-06-18 11:00:00 22.2 4 Sudoeste 9 Oeste 0 -- -- 45
2020-06-18 10:00:00 20.2 3 Nordeste -- -- -- -- -- 55
2020-06-18 09:00:00 17.4 8 Nordeste 19 Nordeste 0 -- -- 62
2020-06-18 08:00:00 14.3 9 Nordeste 13 Nordeste 0 -- -- 72
2020-06-18 07:00:00 12.7 7 Este 12 Nordeste 0 -- -- 77
2020-06-18 06:00:00 13.8 8 Nordeste 12 Nordeste 0 -- -- 73
2020-06-18 05:00:00 14.8 8 Nordeste 14 Nordeste 0 -- -- 68
2020-06-18 04:00:00 15.5 7 Este 19 Nordeste 0 -- -- 63
2020-06-18 03:00:00 16.2 9 Nordeste 17 Nordeste 0 -- -- 59
2020-06-18 02:00:00 17.8 7 Este 14 Nordeste 0 -- -- 55
2020-06-18 01:00:00 18.9 9 Nordeste 19 Nordeste 0 -- -- 51
2020-06-18 00:00:00 20 8 Nordeste 21 Nordeste 0 -- -- 48
2020-06-17 23:00:00 21.4 12 Nordeste 23 Norte 0 -- -- 43
2020-06-17 22:00:00 23.4 7 Noroeste 14 Noroeste 0 -- -- 34
2020-06-17 21:00:00 24 8 Oeste 17 Oeste 0 -- -- 32
2020-06-17 20:00:00 24.9 8 Sudoeste 22 Sudoeste 0 -- -- 30
2020-06-17 19:00:00 26.4 13 Oeste 30 Oeste 0 -- -- 29
2020-06-17 18:00:00 26.2 14 Sudoeste 27 Oeste 0 -- -- 28
2020-06-17 17:00:00 25.5 12 Oeste 27 Oeste 0 -- -- 28
2020-06-17 16:00:00 25.3 7 Noroeste 23 Oeste 0 -- -- 29
2020-06-17 15:00:00 25.2 9 Oeste 27 Oeste 0 -- -- 31
2020-06-17 14:00:00 24.4 8 Este 20 Oeste 0 -- -- 33
2020-06-17 13:00:00 21.9 8 Norte 19 Noroeste 0 -- -- 37
2020-06-17 12:00:00 21.8 5 Oeste 19 Norte 0 -- -- 39
2020-06-17 11:00:00 21.3 10 Nordeste 18 Nordeste 0 -- -- 39
2020-06-17 10:00:00 19.3 10 Nordeste 17 Nordeste 0 -- -- 46
2020-06-17 09:00:00 16.9 11 Nordeste 15 Nordeste 0 -- -- 62
2020-06-17 08:00:00 14 7 Nordeste -- -- -- -- -- 73
2020-06-17 07:00:00 12.6 3 Sudeste 8 Nordeste 0 -- -- 77
2020-06-17 06:00:00 13 3 Nordeste 6 Nordeste 0 -- -- 74
2020-06-17 05:00:00 14.1 4 Este 9 Nordeste 0 -- -- 68
2020-06-17 04:00:00 16.3 3 Este 15 Norte 0 -- -- 57
2020-06-17 03:00:00 17.8 10 Norte 23 Nordeste 0 -- -- 49
2020-06-17 02:00:00 18.2 4 Nordeste 10 Norte 0 -- -- 53
2020-06-17 01:00:00 17.9 0 Calma 6 Nordeste 0 -- -- 59
2020-06-17 00:00:00 17.8 3 Sur 7 Nordeste 0 -- -- 59
2020-06-16 23:00:00 19 4 Sudoeste 21 Sudoeste 0 -- -- 53
2020-06-16 22:00:00 21 14 Sudoeste 23 Oeste 0 -- -- 47
2020-06-16 21:00:00 23.2 6 Norte 24 Oeste 0 -- -- 40
2020-06-16 20:00:00 24.4 17 Noroeste 36 Noroeste 0 -- -- 33
2020-06-16 19:00:00 24.8 21 Noroeste 33 Norte 0 -- -- 35
2020-06-16 18:00:00 25.1 16 Oeste 39 Oeste 0 -- -- 32
2020-06-16 17:00:00 26.8 20 Oeste 34 Oeste 0 -- -- 28
2020-06-16 16:00:00 25.2 20 Noroeste 46 Oeste 0 -- -- 36
2020-06-16 15:00:00 24.2 17 Oeste 30 Oeste 0 -- -- 35
2020-06-16 14:00:00 24 10 Oeste 22 Sudoeste 0 -- -- 40
2020-06-16 13:00:00 22.8 10 Oeste 18 Sudoeste 0 -- -- 45
2020-06-16 12:00:00 21.2 3 Sudeste 14 Norte 0 -- -- 50
2020-06-16 11:00:00 19.9 5 Nordeste 15 Nordeste 0 -- -- 54
2020-06-16 10:00:00 18.6 5 Nordeste 12 Nordeste 0 -- -- 59
2020-06-16 09:00:00 16.4 3 Nordeste 7 Este 0 -- -- 70
2020-06-16 08:00:00 14 0 Calma 3 Sudeste 0 -- -- 84
2020-06-16 07:00:00 13.3 0 Calma 2 Sudeste 0 -- -- 81
2020-06-16 06:00:00 13.9 0 Calma 8 Nordeste 0 -- -- 78
2020-06-16 05:00:00 14.1 5 Nordeste 6 Este 0 -- -- 81
2020-06-16 04:00:00 14.5 3 Nordeste 5 Nordeste 0 -- -- 76
2020-06-16 03:00:00 15.2 4 Nordeste 6 Este 0 -- -- 74
2020-06-16 02:00:00 16.4 3 Nordeste 5 Nordeste 0 -- -- 70
2020-06-16 01:00:00 17.6 5 Nordeste 10 Nordeste 0 -- -- 62
2020-06-16 00:00:00 17.6 2 Noroeste 6 Oeste 0 -- -- 63
2020-06-15 23:00:00 20 0 Calma 5 Nordeste 0 -- -- 56
2020-06-15 22:00:00 21.7 4 Este 13 Nordeste 0 -- -- 50
2020-06-15 21:00:00 23.4 9 Norte 26 Noroeste 0 -- -- 45
2020-06-15 20:00:00 25.7 13 Oeste 23 Sudoeste 0 -- -- 36
2020-06-15 19:00:00 26.5 13 Sudoeste 27 Sudoeste 0 -- -- 31
2020-06-15 18:00:00 27.8 13 Sudoeste 27 Sudoeste 0 -- -- 28
2020-06-15 17:00:00 27.5 15 Oeste 30 Oeste 0 -- -- 31
2020-06-15 16:00:00 27.1 14 Oeste 28 Sudoeste 0 -- -- 31
2020-06-15 15:00:00 26.1 16 Oeste 33 Sudoeste 0 -- -- 33
2020-06-15 14:00:00 25.1 13 Sudoeste 28 Sudoeste 0 -- -- 35
2020-06-15 13:00:00 24.6 9 Sudoeste 25 Sudoeste 0 -- -- 39
2020-06-15 12:00:00 23.1 12 Sudoeste 28 Sur 0 -- -- 43
2020-06-15 11:00:00 21.6 6 Sudoeste 17 Oeste 0 -- -- 46
2020-06-15 10:00:00 19.2 6 Nordeste 13 Este 0 -- -- 51
2020-06-15 09:00:00 15.8 9 Nordeste 13 Nordeste 0 -- -- 66
2020-06-15 08:00:00 12.3 2 Este 4 Este 0 -- -- 78
2020-06-15 07:00:00 11.6 0 Calma 4 Sudoeste 0 -- -- 80
2020-06-15 06:00:00 11.7 0 Calma 2 Sudoeste 0 -- -- 78
2020-06-15 05:00:00 12.7 2 Nordeste 4 Nordeste 0 -- -- 73
2020-06-15 04:00:00 14.7 0 Calma 4 Este 0 -- -- 67
2020-06-15 03:00:00 15.8 3 Este 12 Nordeste 0 -- -- 62
2020-06-15 02:00:00 16.6 5 Nordeste 8 Nordeste 0 -- -- 59
2020-06-15 01:00:00 18.4 4 Este 11 Noroeste 0 -- -- 52
2020-06-15 00:00:00 20.5 9 Norte 15 Norte 0 -- -- 42
2020-06-14 23:00:00 21.1 0 Calma 13 Este 0 -- -- 43
2020-06-14 22:00:00 22.3 5 Nordeste 15 Norte 0 -- -- 40
2020-06-14 21:00:00 24.4 8 Oeste 25 Sudoeste 0 -- -- 35
2020-06-14 20:00:00 24.9 10 Sudoeste 27 Sudoeste 0 -- -- 33
2020-06-14 19:00:00 26.1 11 Sudoeste 23 Sudoeste 0 -- -- 34
2020-06-14 18:00:00 26.4 13 Sudoeste 26 Sudoeste 0 -- -- 32
2020-06-14 17:00:00 25.8 15 Sudoeste 30 Sudoeste 0 -- -- 31
2020-06-14 16:00:00 25.2 16 Sudoeste 37 Oeste 0 -- -- 32
2020-06-14 15:00:00 24.5 14 Oeste 31 Sudoeste 0 -- -- 33
2020-06-14 14:00:00 23.3 13 Sudoeste 29 Oeste 0 -- -- 38
2020-06-14 13:00:00 22.1 16 Oeste 31 Oeste 0 -- -- 38
2020-06-14 12:00:00 21.4 10 Sudoeste 28 Sudoeste 0 -- -- 40
2020-06-14 11:00:00 20.2 7 Sudeste 14 Sudeste 0 -- -- 47
2020-06-14 10:00:00 18.3 3 Nordeste 8 Nordeste 0 -- -- 54
2020-06-14 09:00:00 14.8 3 Nordeste 5 Nordeste 0 -- -- 66
2020-06-14 08:00:00 11.1 0 Calma 3 Nordeste 0 -- -- 83
2020-06-14 07:00:00 8.1 0 Calma 3 Nordeste 0 -- -- 87
2020-06-14 06:00:00 8.4 0 Calma 9 Nordeste 0 -- -- 84
2020-06-14 05:00:00 8.9 3 Nordeste 6 Nordeste 0 -- -- 83
2020-06-14 04:00:00 9.4 3 Este 4 Este 0 -- -- 80
2020-06-14 03:00:00 10.7 0 Calma 5 Norte 0 -- -- 75
2020-06-14 02:00:00 12.1 5 Nordeste 7 Nordeste 0 -- -- 69
2020-06-14 01:00:00 13.3 0 Calma 5 Sudeste 0 -- -- 65
2020-06-14 00:00:00 14.9 4 Sur 7 Sudoeste 0 -- -- 61
2020-06-13 23:00:00 17.1 5 Sudoeste 12 Sudoeste 0 -- -- 49
2020-06-13 22:00:00 19.6 8 Sudoeste 21 Sudoeste 0 -- -- 43
2020-06-13 21:00:00 22 15 Sudoeste 28 Sudoeste 0 -- -- 36
2020-06-13 20:00:00 22.1 13 Sudoeste 26 Sudoeste 0 -- -- 34
2020-06-13 19:00:00 22.8 13 Sudoeste 26 Sudoeste 0 -- -- 33
2020-06-13 18:00:00 23.6 12 Oeste 27 Oeste 0 -- -- 31
2020-06-13 17:00:00 23.4 14 Oeste 28 Oeste 0 -- -- 34
2020-06-13 16:00:00 22.7 15 Sudoeste 30 Sudoeste 0 -- -- 35
2020-06-13 15:00:00 21.4 11 Noroeste 27 Oeste 0 -- -- 37
2020-06-13 14:00:00 20.7 8 Oeste 22 Oeste 0 -- -- 39
2020-06-13 13:00:00 19 5 Oeste 15 Sudoeste 0 -- -- 44
2020-06-13 12:00:00 18.4 8 Sur 15 Sudeste 0 -- -- 49
2020-06-13 11:00:00 16.3 5 Noroeste 18 Oeste 0 -- -- 61
2020-06-13 10:00:00 14.1 9 Sudoeste 19 Sudoeste 0 -- -- 72
2020-06-13 09:00:00 12.3 10 Sudoeste 18 Sudoeste 0 -- -- 82
2020-06-13 08:00:00 10.8 9 Sudoeste 17 Sudoeste 0 -- -- 88
2020-06-13 07:00:00 10 6 Sudoeste 21 Sudoeste 0 -- -- 88
2020-06-13 06:00:00 10.3 12 Sudoeste 25 Sudoeste 0 -- -- 88
2020-06-13 05:00:00 10.5 7 Sudoeste 14 Sudoeste 0 -- -- 87
2020-06-13 04:00:00 10.9 5 Sudoeste 21 Sudoeste 0 -- -- 86
2020-06-13 03:00:00 11.6 11 Sudoeste 17 Sudoeste 0 -- -- 86
2020-06-13 02:00:00 11.6 6 Sudoeste 16 Sudoeste 0.2 -- -- 85
2020-06-13 01:00:00 12.1 10 Sudoeste 19 Sudoeste 0 -- -- 83
2020-06-13 00:00:00 11.9 10 Sur 28 Oeste 0.8 -- -- 84
2020-06-12 23:00:00 13.1 16 Oeste 47 Sudoeste 0.4 -- -- 76
2020-06-12 22:00:00 16 13 Oeste 27 Oeste 0 -- -- 52
2020-06-12 21:00:00 17.2 11 Noroeste 41 Sudoeste 0 -- -- 49
2020-06-12 20:00:00 19.2 22 Sudoeste 43 Oeste 0 -- -- 41
2020-06-12 19:00:00 19.3 25 Sudoeste 41 Sudoeste 0 -- -- 41
2020-06-12 18:00:00 20.1 16 Oeste 44 Oeste 0 -- -- 42
2020-06-12 17:00:00 19.3 21 Sudoeste 40 Sudoeste 0 -- -- 42
2020-06-12 16:00:00 19.7 26 Sudoeste 46 Sur 0 -- -- 40
2020-06-12 15:00:00 20.7 20 Sudoeste 45 Sudoeste 0 -- -- 40
2020-06-12 14:00:00 18.5 21 Sudoeste 40 Oeste 0 -- -- 45
2020-06-12 13:00:00 17.6 19 Sudoeste 37 Sudoeste 0 -- -- 46
2020-06-12 12:00:00 16 21 Sudoeste 36 Oeste 0 -- -- 49
2020-06-12 11:00:00 15.9 17 Sudoeste 34 Sudoeste 0 -- -- 51
2020-06-12 10:00:00 12.7 15 Sudoeste 27 Sudoeste 0 -- -- 60
2020-06-12 09:00:00 12.2 15 Sudoeste 26 Sudoeste 0 -- -- 61
2020-06-12 08:00:00 10.6 13 Sudoeste 23 Sudoeste 0 -- -- 67
2020-06-12 07:00:00 10.2 10 Sudoeste 23 Sudoeste 0 -- -- 68
2020-06-12 06:00:00 11.5 12 Sudoeste 30 Oeste 0 -- -- 65
2020-06-12 05:00:00 12.7 13 Sudoeste 22 Oeste 0 -- -- 54
2020-06-12 04:00:00 13.3 14 Oeste 31 Oeste 0 -- -- 54
2020-06-12 03:00:00 14.3 18 Oeste 31 Oeste 0 -- -- 52
2020-06-12 02:00:00 15.1 20 Oeste 30 Oeste 0 -- -- 52
2020-06-12 01:00:00 16.1 17 Oeste 43 Sudoeste 0 -- -- 54
2020-06-12 00:00:00 17.2 26 Sudoeste 43 Oeste 0 -- -- 49